KNTD/NTD METAR and TAF weather

Enter ICAO airport designator
Station Type Date Time Source
KNTD METAR 2021/05/11 00:52 UTC NOAA

KNTD 110052Z 27006KT 10SM SCT014 BKN020 BKN034 17/12 A2991 RMK AO2 SLP128 T01720122 VISNO N $


Station Type Date Time Source
KNTD Decoded METAR 2021/05/11 00:52 UTC NOAA

NAWCWPNS POINT MUGU, CA, CA, United States (KNTD) 34-07N 119-07W 2M
May 10, 2021 - 08:52 PM EDT / 2021.05.11 0052 UTC
Wind: from the W (270 degrees) at 7 MPH (6 KT):0
Visibility: 10 mile(s):0
Sky conditions: mostly cloudy
Temperature: 63.0 F (17.2 C)
Dew Point: 54.0 F (12.2 C)
Relative Humidity: 72%
Pressure (altimeter): 29.91 in. Hg (1012 hPa)
ob: KNTD 110052Z 27006KT 10SM SCT014 BKN020 BKN034 17/12 A2991 RMK AO2 SLP128 T01720122 VISNO N
cycle: 1

Station Type Date Time Source
KNTD TAF 2021/05/10 23:06 UTC NOAA

TAF KNTD 1023/1123 25008KT 9999 SCT016 BKN034 QNH2987INS
TEMPO 1100/1105 VRB05KT BKN015 BKN032
FM110500 VRB04KT 9999 BKN014 OVC030 QNH2989INS
FM110800 VRB04KT 9000 BR OVC010 QNH2986INS
TEMPO 1110/1115 8000 BR OVC008
BECMG 1117/1119 22009KT 9000 HZ BKN015 QNH2987INS
TEMPO 1121/1123 26011KT 8000 HZ SCT012 AUTOMATED SENSOR METWATCH 1106 TIL 1113 T13/1112Z T19/1122Z FS30101

Example: see airport list